createdAt,value
2018-05-03T00:01:15.331Z,5.40
2018-05-03T00:03:41.868Z,5.30
2018-05-03T00:06:08.411Z,5.55
2018-05-03T00:08:34.962Z,5.47
2018-05-03T00:11:01.503Z,5.37
2018-05-03T00:13:27.992Z,5.60
2018-05-03T00:15:54.562Z,6.07
2018-05-03T00:18:21.487Z,5.20
2018-05-03T00:20:48.197Z,6.05
2018-05-03T00:23:14.694Z,5.72
2018-05-03T00:25:41.238Z,6.85
2018-05-03T00:28:08.146Z,8.03
2018-05-03T00:30:34.655Z,5.57
2018-05-03T00:33:01.195Z,5.50
2018-05-03T00:35:27.742Z,6.20
2018-05-03T00:37:54.255Z,6.30
2018-05-03T00:40:20.792Z,5.50
2018-05-03T00:42:47.288Z,6.10
2018-05-03T00:45:13.830Z,6.20
2018-05-03T00:47:40.366Z,6.22
2018-05-03T00:50:06.879Z,6.80
2018-05-03T00:52:33.418Z,7.07
2018-05-03T00:54:59.979Z,5.75
2018-05-03T00:57:26.520Z,6.95
2018-05-03T00:59:53.096Z,6.65
2018-05-03T01:02:19.620Z,5.70
2018-05-03T01:04:46.189Z,6.10
2018-05-03T01:07:12.696Z,6.07
2018-05-03T01:09:39.223Z,7.78
2018-05-03T01:12:06.142Z,7.50
2018-05-03T01:14:32.658Z,6.45
2018-05-03T01:16:59.195Z,7.03
2018-05-03T01:19:25.703Z,7.10
2018-05-03T01:21:52.243Z,6.30
2018-05-03T01:24:19.159Z,6.12
2018-05-03T01:26:45.676Z,6.03
2018-05-03T01:29:12.210Z,6.57
2018-05-03T01:31:39.103Z,5.72
2018-05-03T01:34:05.652Z,5.18
2018-05-03T01:36:32.253Z,6.50
2018-05-03T01:38:59.132Z,6.10
2018-05-03T01:41:25.683Z,6.53
2018-05-03T01:43:52.226Z,6.10
2018-05-03T01:46:18.783Z,6.40
2018-05-03T01:48:45.354Z,7.25
2018-05-03T01:51:11.851Z,6.05
2018-05-03T01:53:38.852Z,6.30
2018-05-03T01:56:05.363Z,7.12
2018-05-03T01:58:31.923Z,6.40
2018-05-03T02:00:58.507Z,5.62
2018-05-03T02:03:25.016Z,5.80
2018-05-03T02:05:51.588Z,5.90
2018-05-03T02:08:18.094Z,5.45
2018-05-03T02:10:45.000Z,6.35
2018-05-03T02:13:11.531Z,6.35
2018-05-03T02:15:38.142Z,5.97
2018-05-03T02:18:05.068Z,6.12
2018-05-03T02:20:31.576Z,6.22
2018-05-03T02:22:58.111Z,8.35
2018-05-03T02:25:24.647Z,6.90
2018-05-03T02:27:51.150Z,5.57
2018-05-03T02:30:17.703Z,5.50
2018-05-03T02:32:44.206Z,6.10
2018-05-03T02:35:10.754Z,6.65
2018-05-03T02:37:37.304Z,6.32
2018-05-03T02:40:03.847Z,6.10
2018-05-03T02:42:30.382Z,6.53
2018-05-03T02:44:56.904Z,7.00
2018-05-03T02:47:23.822Z,5.62
2018-05-03T02:49:50.391Z,6.30
2018-05-03T02:52:16.942Z,5.80
2018-05-03T02:54:43.531Z,6.57
2018-05-03T02:57:22.183Z,6.18
2018-05-03T03:00:00.859Z,5.85
2018-05-03T03:05:56.764Z,7.40
2018-05-03T03:08:41.548Z,6.22
2018-05-03T03:14:53.922Z,7.43
2018-05-03T03:21:13.803Z,7.68
2018-05-03T03:23:59.043Z,6.30
2018-05-03T03:29:51.346Z,6.30
2018-05-03T03:32:30.047Z,7.45
2018-05-03T03:35:23.706Z,7.15
2018-05-03T03:38:08.899Z,7.30
2018-05-03T03:40:47.455Z,6.25
2018-05-03T03:46:14.071Z,6.68
2018-05-03T03:48:40.584Z,6.95
2018-05-03T03:51:07.135Z,8.25
2018-05-03T03:53:33.675Z,7.25
2018-05-03T03:56:00.223Z,7.22
2018-05-03T03:58:26.775Z,6.93
2018-05-03T04:00:53.290Z,6.40
2018-05-03T04:03:19.836Z,6.80
2018-05-03T04:05:46.431Z,6.72
2018-05-03T04:08:12.931Z,7.00
2018-05-03T04:10:39.463Z,6.65
2018-05-03T04:13:06.351Z,6.55
2018-05-03T04:15:32.895Z,8.98
2018-05-03T04:18:11.647Z,7.62
2018-05-03T04:20:52.115Z,5.82
2018-05-03T04:23:38.288Z,6.80
2018-05-03T04:26:05.211Z,6.73
2018-05-03T04:28:31.714Z,6.87
2018-05-03T04:30:58.235Z,8.75
2018-05-03T04:33:25.148Z,7.15
2018-05-03T04:35:51.707Z,6.25
2018-05-03T04:38:18.219Z,6.55
2018-05-03T04:40:44.772Z,7.07
2018-05-03T04:43:11.291Z,8.15
2018-05-03T04:45:37.836Z,8.05
2018-05-03T04:48:04.440Z,7.10
2018-05-03T04:50:30.988Z,8.75
2018-05-03T04:52:57.544Z,6.75
2018-05-03T04:55:24.110Z,7.10
2018-05-03T04:57:51.039Z,7.35
2018-05-03T05:00:17.566Z,7.20
2018-05-03T05:02:44.065Z,8.45
2018-05-03T05:05:10.979Z,7.25
2018-05-03T05:07:37.507Z,6.50
2018-05-03T05:10:04.099Z,7.32
2018-05-03T05:12:30.636Z,6.93
2018-05-03T05:14:57.145Z,6.87
2018-05-03T05:17:23.693Z,7.30
2018-05-03T05:19:50.207Z,10.05
2018-05-03T05:22:17.119Z,6.68
2018-05-03T05:24:44.077Z,5.80
2018-05-03T05:27:10.575Z,9.60
2018-05-03T05:29:37.132Z,8.15
2018-05-03T05:32:03.652Z,7.80
2018-05-03T05:34:30.209Z,6.65
2018-05-03T05:37:03.819Z,6.20
2018-05-03T05:39:30.763Z,6.90
2018-05-03T05:41:59.063Z,5.80
2018-05-03T05:44:26.067Z,7.03
2018-05-03T05:46:52.531Z,10.98
2018-05-03T05:49:19.066Z,12.23
2018-05-03T05:51:45.623Z,8.93
2018-05-03T05:54:12.172Z,6.80
2018-05-03T05:56:38.846Z,6.55
2018-05-03T05:59:05.395Z,7.82
2018-05-03T06:01:32.299Z,9.70
2018-05-03T06:03:58.903Z,7.72
2018-05-03T06:06:25.816Z,16.75
2018-05-03T06:08:52.351Z,7.30
2018-05-03T06:11:18.935Z,9.10
2018-05-03T06:13:45.443Z,9.85
2018-05-03T06:16:12.004Z,8.35
2018-05-03T06:18:38.546Z,8.40
2018-05-03T06:21:05.059Z,11.20
2018-05-03T06:23:31.621Z,7.68
2018-05-03T06:25:58.240Z,10.30
2018-05-03T06:28:24.739Z,7.35
2018-05-03T06:30:51.303Z,7.60
2018-05-03T06:33:17.824Z,8.90
2018-05-03T06:35:44.364Z,8.05
2018-05-03T06:38:10.882Z,8.15
2018-05-03T06:40:37.427Z,8.95
2018-05-03T06:43:03.974Z,11.07
2018-05-03T06:45:30.907Z,9.13
2018-05-03T06:47:57.459Z,8.00
2018-05-03T06:50:24.346Z,12.00
2018-05-03T06:52:50.908Z,7.87
2018-05-03T06:55:17.420Z,9.25
2018-05-03T06:57:44.384Z,9.10
2018-05-03T07:00:10.963Z,9.40
2018-05-03T07:02:37.480Z,8.73
2018-05-03T07:05:04.060Z,8.18
2018-05-03T07:07:30.564Z,11.12
2018-05-03T07:09:57.477Z,6.57
2018-05-03T07:12:24.026Z,7.32
2018-05-03T07:14:50.520Z,8.73
2018-05-03T07:17:17.059Z,6.40
2018-05-03T07:19:43.944Z,7.60
2018-05-03T07:22:10.490Z,7.37
2018-05-03T07:24:37.027Z,7.90
2018-05-03T07:27:03.560Z,7.20
2018-05-03T07:29:30.145Z,8.27
2018-05-03T07:31:56.648Z,6.93
2018-05-03T07:34:23.528Z,6.10
2018-05-03T07:36:50.052Z,6.65
2018-05-03T07:39:16.972Z,8.57
2018-05-03T07:41:43.479Z,6.30
2018-05-03T07:44:10.015Z,6.85
2018-05-03T07:46:36.548Z,8.80
2018-05-03T07:49:03.471Z,6.30
2018-05-03T07:51:30.024Z,6.47
2018-05-03T07:53:56.539Z,16.52
2018-05-03T07:56:23.144Z,7.82
2018-05-03T07:58:50.060Z,8.63
2018-05-03T08:01:16.611Z,7.82
2018-05-03T08:03:43.147Z,7.72
2018-05-03T08:06:09.683Z,11.10
2018-05-03T08:08:36.235Z,7.75
2018-05-03T08:11:02.775Z,9.82
2018-05-03T08:13:29.324Z,7.22
2018-05-03T08:15:55.862Z,6.87
2018-05-03T08:18:22.399Z,6.60
2018-05-03T08:20:48.943Z,7.10
2018-05-03T08:23:15.446Z,6.87
2018-05-03T08:25:41.998Z,7.50
2018-05-03T08:28:08.912Z,8.45
2018-05-03T08:30:35.427Z,9.57
2018-05-03T08:33:01.979Z,11.93
2018-05-03T08:35:28.507Z,8.27
2018-05-03T08:37:55.427Z,10.23
2018-05-03T08:40:21.975Z,7.50
2018-05-03T08:42:48.483Z,7.12
2018-05-03T08:45:15.028Z,7.35
2018-05-03T08:47:41.535Z,7.55
2018-05-03T08:50:08.067Z,7.87
2018-05-03T08:52:34.639Z,8.57
2018-05-03T08:55:01.155Z,6.50
2018-05-03T08:57:27.804Z,8.60
2018-05-03T08:59:54.380Z,9.35
2018-05-03T09:02:21.332Z,10.38
2018-05-03T09:04:48.240Z,9.57
2018-05-03T09:07:14.758Z,7.90
2018-05-03T09:09:41.297Z,10.30
2018-05-03T09:12:07.815Z,7.62
2018-05-03T09:14:34.378Z,10.03
2018-05-03T09:17:01.296Z,8.10
2018-05-03T09:19:27.838Z,7.45
2018-05-03T09:21:54.384Z,9.85
2018-05-03T09:24:20.900Z,8.50
2018-05-03T09:26:47.487Z,9.40
2018-05-03T09:29:14.031Z,7.03
2018-05-03T09:31:40.547Z,8.63
2018-05-03T09:34:07.105Z,9.10
2018-05-03T09:36:33.622Z,8.25
2018-05-03T09:39:00.530Z,8.73
2018-05-03T09:41:27.066Z,8.25
2018-05-03T09:43:53.588Z,9.20
2018-05-03T09:46:20.139Z,8.10
2018-05-03T09:48:46.643Z,8.30
2018-05-03T09:51:13.173Z,8.75
2018-05-03T09:53:39.718Z,7.55
2018-05-03T09:56:06.270Z,7.78
2018-05-03T09:58:33.047Z,9.65
2018-05-03T10:01:00.003Z,8.95
2018-05-03T10:03:27.210Z,14.87
2018-05-03T10:05:53.935Z,9.00
2018-05-03T10:08:20.443Z,12.90
2018-05-03T10:10:46.999Z,8.50
2018-05-03T10:13:13.734Z,8.73
2018-05-03T10:15:40.388Z,8.65
2018-05-03T10:18:07.144Z,10.25
2018-05-03T10:20:33.688Z,9.65
2018-05-03T10:23:00.236Z,9.37
2018-05-03T10:25:26.771Z,9.52
2018-05-03T10:27:53.310Z,10.30
2018-05-03T10:30:20.006Z,7.65
2018-05-03T10:32:46.483Z,9.23
2018-05-03T10:35:13.535Z,12.27
2018-05-03T10:37:40.101Z,9.95
2018-05-03T10:40:06.629Z,9.60
2018-05-03T10:42:33.182Z,11.10
2018-05-03T10:44:59.728Z,11.80
2018-05-03T10:47:26.248Z,9.93
2018-05-03T10:49:53.163Z,9.73
2018-05-03T10:52:19.676Z,12.23
2018-05-03T10:54:46.241Z,9.88
2018-05-03T10:57:12.782Z,10.73
2018-05-03T10:59:39.283Z,12.90
2018-05-03T11:02:06.192Z,11.77
2018-05-03T11:04:32.740Z,13.10
2018-05-03T11:06:59.367Z,12.00
2018-05-03T11:09:25.915Z,10.43
2018-05-03T11:11:52.437Z,10.85
2018-05-03T11:14:19.356Z,11.70
2018-05-03T11:16:45.935Z,13.35
2018-05-03T11:19:12.452Z,10.70
2018-05-03T11:21:38.992Z,11.07
2018-05-03T11:24:05.508Z,15.27
2018-05-03T11:26:32.051Z,11.30
2018-05-03T11:28:58.551Z,10.93
2018-05-03T11:31:25.139Z,10.25
2018-05-03T11:33:51.703Z,10.20
2018-05-03T11:36:18.235Z,9.23
2018-05-03T11:38:44.771Z,10.85
2018-05-03T11:41:11.283Z,9.68
2018-05-03T11:43:37.854Z,10.63
2018-05-03T11:46:04.789Z,11.20
2018-05-03T11:48:31.296Z,10.60
2018-05-03T11:53:31.233Z,12.30
2018-05-03T11:55:57.794Z,9.80
2018-05-03T11:58:24.376Z,9.82
2018-05-03T12:03:24.032Z,9.98
2018-05-03T12:05:50.580Z,9.63
2018-05-03T12:08:17.510Z,12.68
2018-05-03T12:10:44.074Z,9.35
2018-05-03T12:13:10.641Z,10.38
2018-05-03T12:15:37.579Z,15.90
2018-05-03T12:18:04.095Z,10.63
2018-05-03T12:20:30.639Z,10.60
2018-05-03T12:22:57.216Z,8.77
2018-05-03T12:25:23.767Z,11.47
2018-05-03T12:27:50.311Z,12.15
2018-05-03T12:30:16.829Z,13.25
2018-05-03T12:32:43.404Z,10.57
2018-05-03T12:35:10.015Z,10.82
2018-05-03T12:37:36.539Z,10.50
2018-05-03T12:40:03.132Z,13.98
2018-05-03T12:42:29.663Z,11.20
2018-05-03T12:44:56.199Z,7.82
2018-05-03T12:47:22.751Z,8.65
2018-05-03T12:49:49.271Z,10.50
2018-05-03T12:52:16.213Z,16.67
2018-05-03T12:54:43.106Z,8.55
2018-05-03T12:57:09.671Z,10.50
2018-05-03T12:59:36.214Z,11.15
2018-05-03T13:02:02.794Z,12.57
2018-05-03T13:04:29.410Z,11.03
2018-05-03T13:06:55.935Z,10.35
2018-05-03T13:09:22.503Z,9.60
2018-05-03T13:11:49.039Z,10.82
2018-05-03T13:14:15.557Z,11.70
2018-05-03T13:16:42.495Z,10.60
2018-05-03T13:19:09.010Z,9.20
2018-05-03T13:21:35.567Z,10.95
2018-05-03T13:24:02.135Z,11.32
2018-05-03T13:26:28.643Z,11.80
2018-05-03T13:28:55.187Z,9.80
2018-05-03T13:31:21.691Z,10.15
2018-05-03T13:33:48.630Z,11.73
2018-05-03T13:36:15.187Z,12.97
2018-05-03T13:38:42.075Z,11.60
2018-05-03T13:41:08.722Z,11.18
2018-05-03T13:43:35.295Z,9.77
2018-05-03T13:46:01.879Z,10.20
2018-05-03T13:48:28.427Z,10.73
2018-05-03T13:50:55.020Z,15.73
2018-05-03T13:53:21.616Z,20.30
2018-05-03T13:55:48.147Z,12.40
2018-05-03T13:58:14.727Z,11.30
2018-05-03T14:00:41.248Z,13.70
2018-05-03T14:03:07.756Z,13.77
2018-05-03T14:05:34.379Z,14.37
2018-05-03T14:08:01.336Z,14.13
2018-05-03T14:10:28.261Z,15.00
2018-05-03T14:12:54.848Z,20.73
2018-05-03T14:15:21.375Z,16.27
2018-05-03T14:17:48.275Z,16.87
2018-05-03T14:20:21.977Z,15.75
2018-05-03T14:22:48.478Z,15.20
2018-05-03T14:25:15.016Z,21.58
2018-05-03T14:27:41.568Z,15.85
2018-05-03T14:30:08.084Z,15.75
2018-05-03T14:32:34.624Z,16.90
2018-05-03T14:35:01.143Z,16.45
2018-05-03T14:37:27.671Z,16.77
2018-05-03T14:39:55.069Z,17.02
2018-05-03T14:42:21.595Z,19.00
2018-05-03T14:44:48.503Z,18.52
2018-05-03T14:47:15.032Z,16.58
2018-05-03T14:49:41.580Z,17.55
2018-05-03T14:52:08.131Z,17.20
2018-05-03T14:54:34.644Z,16.23
2018-05-03T14:57:01.551Z,18.30
2018-05-03T14:59:28.069Z,17.02
2018-05-03T15:01:54.633Z,16.37
2018-05-03T15:04:21.170Z,16.60
2018-05-03T15:06:47.681Z,17.80
2018-05-03T15:09:14.591Z,16.10
2018-05-03T15:11:41.131Z,17.83
2018-05-03T15:14:07.682Z,19.08
2018-05-03T15:16:34.298Z,21.90
2018-05-03T15:19:01.167Z,21.20
2018-05-03T15:21:27.736Z,22.13
2018-05-03T15:23:54.268Z,21.00
2018-05-03T15:26:20.828Z,22.60
2018-05-03T15:28:47.399Z,25.75
2018-05-03T15:31:13.955Z,26.08
2018-05-03T15:33:40.879Z,25.73
2018-05-03T15:36:07.390Z,25.15
2018-05-03T15:38:33.943Z,26.30
2018-05-03T15:41:00.504Z,26.00
2018-05-03T15:43:27.019Z,26.02
2018-05-03T15:45:53.559Z,28.98
2018-05-03T15:48:20.490Z,30.27
2018-05-03T15:50:47.008Z,33.17
2018-05-03T15:53:13.555Z,29.30
2018-05-03T15:55:40.107Z,25.85
2018-05-03T15:58:06.659Z,26.00
2018-05-03T16:00:33.175Z,26.25
2018-05-03T16:02:59.783Z,25.17
2018-05-03T16:05:26.420Z,25.73
2018-05-03T16:07:52.959Z,24.80
2018-05-03T16:10:19.574Z,25.58
2018-05-03T16:12:46.139Z,23.30
2018-05-03T16:15:12.642Z,25.80
2018-05-03T16:17:39.552Z,26.87
2018-05-03T16:20:06.058Z,25.67
2018-05-03T16:22:32.615Z,24.48
2018-05-03T16:24:59.162Z,25.23
2018-05-03T16:27:25.779Z,25.17
2018-05-03T16:29:52.746Z,26.50
2018-05-03T16:32:19.256Z,25.35
2018-05-03T16:34:45.811Z,24.63
2018-05-03T16:37:12.354Z,25.77
2018-05-03T16:39:38.898Z,24.77
2018-05-03T16:42:05.442Z,24.25
2018-05-03T16:44:31.976Z,23.90
2018-05-03T16:46:58.563Z,25.83
2018-05-03T16:49:25.095Z,23.25
2018-05-03T16:51:52.000Z,24.63
2018-05-03T16:54:18.553Z,22.98
2018-05-03T16:56:45.055Z,24.30
2018-05-03T16:59:11.963Z,22.23
2018-05-03T17:01:38.496Z,21.10
2018-05-03T17:04:05.103Z,21.17
2018-05-03T17:06:31.655Z,21.45
2018-05-03T17:08:58.547Z,20.45
2018-05-03T17:11:25.171Z,22.33
2018-05-03T17:13:51.683Z,21.10
2018-05-03T17:16:18.243Z,21.83
2018-05-03T17:18:44.803Z,20.10
2018-05-03T17:21:11.707Z,21.87
2018-05-03T17:23:38.258Z,23.77
2018-05-03T17:26:04.845Z,21.83
2018-05-03T17:28:31.732Z,19.08
2018-05-03T17:30:58.274Z,23.38
2018-05-03T17:33:24.800Z,20.33
2018-05-03T17:35:51.736Z,24.27
2018-05-03T17:38:18.311Z,22.05
2018-05-03T17:40:45.298Z,21.50
2018-05-03T17:43:11.879Z,19.27
2018-05-03T17:45:38.396Z,22.65
2018-05-03T17:48:04.987Z,19.70
2018-05-03T17:50:31.611Z,18.85
2018-05-03T17:52:58.151Z,20.57
2018-05-03T17:55:24.746Z,17.95
2018-05-03T17:57:51.636Z,17.33
2018-05-03T18:00:18.198Z,16.37
2018-05-03T18:02:44.739Z,19.70
2018-05-03T18:05:11.252Z,17.35
2018-05-03T18:07:37.804Z,17.15
2018-05-03T18:10:04.801Z,18.58
2018-05-03T18:12:31.370Z,16.20
2018-05-03T18:14:57.919Z,15.20
2018-05-03T18:17:24.595Z,16.65
2018-05-03T18:19:51.507Z,14.10
2018-05-03T18:22:18.096Z,17.90
2018-05-03T18:24:44.676Z,15.55
2018-05-03T18:27:11.235Z,15.68
2018-05-03T18:29:37.790Z,15.48
2018-05-03T18:32:04.396Z,16.73
2018-05-03T18:34:31.357Z,19.23
2018-05-03T18:36:57.921Z,16.55
2018-05-03T18:39:24.484Z,19.95
2018-05-03T18:41:51.019Z,15.40
2018-05-03T18:44:17.640Z,14.75
2018-05-03T18:46:44.156Z,12.93
2018-05-03T18:49:10.705Z,19.20
2018-05-03T18:51:37.404Z,13.10
2018-05-03T18:54:04.088Z,14.50
2018-05-03T18:56:30.639Z,13.38
2018-05-03T18:58:57.216Z,12.67
2018-05-03T19:01:24.143Z,14.50
2018-05-03T19:03:50.706Z,12.52
2018-05-03T19:06:17.681Z,15.67
2018-05-03T19:08:44.610Z,15.10
2018-05-03T19:11:11.184Z,13.23
2018-05-03T19:13:38.100Z,15.27
2018-05-03T19:16:04.658Z,14.25
2018-05-03T19:18:31.167Z,16.25
2018-05-03T19:20:57.712Z,13.80
2018-05-03T19:23:24.309Z,14.65
2018-05-03T19:25:50.895Z,13.62
2018-05-03T19:28:17.451Z,14.52
2018-05-03T19:30:43.980Z,17.25
2018-05-03T19:33:10.912Z,12.27
2018-05-03T19:35:37.488Z,12.88
2018-05-03T19:38:04.532Z,14.52
2018-05-03T19:40:31.112Z,14.07
2018-05-03T19:42:58.513Z,12.60
2018-05-03T19:45:25.075Z,14.75
2018-05-03T19:47:51.592Z,19.42
2018-05-03T19:50:18.192Z,16.05
2018-05-03T19:52:45.120Z,11.85
2018-05-03T19:55:11.651Z,12.57
2018-05-03T19:57:38.186Z,13.07
2018-05-03T20:00:04.724Z,11.70
2018-05-03T20:02:31.304Z,12.35
2018-05-03T20:04:57.880Z,12.63
2018-05-03T20:07:24.491Z,13.57
2018-05-03T20:09:51.132Z,13.90
2018-05-03T20:12:20.441Z,15.40
2018-05-03T20:14:46.981Z,13.80
2018-05-03T20:17:13.548Z,14.23
2018-05-03T20:19:40.102Z,15.38
2018-05-03T20:22:06.651Z,15.77
2018-05-03T20:24:33.222Z,18.65
2018-05-03T20:26:59.814Z,17.42
2018-05-03T20:29:26.501Z,20.98
2018-05-03T20:31:53.059Z,17.48
2018-05-03T20:34:19.554Z,17.90
2018-05-03T20:36:46.090Z,17.23
2018-05-03T20:39:12.614Z,18.00
2018-05-03T20:41:39.522Z,17.12
2018-05-03T20:44:06.075Z,16.70
2018-05-03T20:46:32.580Z,17.62
2018-05-03T20:48:59.207Z,21.00
2018-05-03T20:51:26.127Z,17.90
2018-05-03T20:53:52.683Z,18.40
2018-05-03T20:56:19.217Z,20.02
2018-05-03T20:58:45.728Z,17.70
2018-05-03T21:01:12.259Z,17.67
2018-05-03T21:03:39.142Z,20.58
2018-05-03T21:06:05.691Z,17.33
2018-05-03T21:08:32.237Z,18.65
2018-05-03T21:10:58.825Z,19.85
2018-05-03T21:13:25.392Z,18.40
2018-05-03T21:15:52.267Z,19.60
2018-05-03T21:18:18.843Z,19.62
2018-05-03T21:20:45.403Z,19.12
2018-05-03T21:23:11.915Z,20.33
2018-05-03T21:25:38.467Z,20.25
2018-05-03T21:28:04.994Z,18.23
2018-05-03T21:30:31.911Z,19.77
2018-05-03T21:32:58.472Z,19.73
2018-05-03T21:35:24.987Z,19.95
2018-05-03T21:37:51.528Z,19.05
2018-05-03T21:40:18.047Z,21.40
2018-05-03T21:42:44.588Z,19.45
2018-05-03T21:45:18.337Z,17.50
2018-05-03T21:47:44.879Z,18.87
2018-05-03T21:50:11.433Z,18.77
2018-05-03T21:52:37.946Z,17.70
2018-05-03T21:55:04.490Z,20.20
2018-05-03T21:57:31.368Z,17.87
2018-05-03T21:59:57.920Z,17.65
2018-05-03T22:02:24.455Z,16.95
2018-05-03T22:04:50.977Z,17.80
2018-05-03T22:07:17.891Z,18.87
2018-05-03T22:09:44.391Z,19.08
2018-05-03T22:12:10.936Z,18.97
2018-05-03T22:14:37.878Z,18.02
2018-05-03T22:17:04.791Z,17.73
2018-05-03T22:19:31.338Z,16.55
2018-05-03T22:21:57.864Z,17.00
2018-05-03T22:24:24.471Z,18.10
2018-05-03T22:26:51.383Z,17.60
2018-05-03T22:29:17.903Z,18.12
2018-05-03T22:31:44.472Z,17.48
2018-05-03T22:34:10.991Z,18.02
2018-05-03T22:36:37.532Z,18.40
2018-05-03T22:39:04.521Z,19.20
2018-05-03T22:41:31.037Z,17.50
2018-05-03T22:43:57.582Z,19.37
2018-05-03T22:46:24.454Z,19.40
2018-05-03T22:48:50.998Z,19.62
2018-05-03T22:51:17.552Z,17.70
2018-05-03T22:53:44.068Z,17.77
2018-05-03T22:56:10.974Z,17.60
2018-05-03T22:58:37.492Z,17.20
2018-05-03T23:01:04.075Z,17.37
2018-05-03T23:03:30.624Z,20.08
2018-05-03T23:05:57.123Z,19.48
2018-05-03T23:08:23.655Z,18.50
2018-05-03T23:10:50.530Z,17.67
2018-05-03T23:13:17.093Z,19.23
2018-05-03T23:15:43.702Z,17.02
2018-05-03T23:18:10.634Z,16.07
2018-05-03T23:20:37.240Z,16.73
2018-05-03T23:23:03.744Z,15.35
2018-05-03T23:25:30.287Z,15.63
2018-05-03T23:27:56.832Z,14.95
2018-05-03T23:30:23.390Z,14.95
2018-05-03T23:32:49.912Z,13.30
2018-05-03T23:35:16.434Z,14.13
2018-05-03T23:37:42.974Z,14.13
2018-05-03T23:40:09.507Z,13.20
2018-05-03T23:42:36.047Z,14.98
2018-05-03T23:45:02.632Z,14.32
2018-05-03T23:47:29.187Z,15.23
2018-05-03T23:49:55.692Z,14.20
2018-05-03T23:52:22.226Z,15.38
2018-05-03T23:54:48.771Z,14.50
2018-05-03T23:57:15.271Z,13.62
2018-05-03T23:59:41.815Z,14.57
